Time;durP1;ratioP1;P1;durP2;ratioP2;P2;SDS_P1;SDS_P2;PMS_P1;PMS_P2;Temp;Humidity;BMP_temperature;BMP_pressure;BME280_temperature;BME280_humidity;BME280_pressure;Samples;Min_cycle;Max_cycle;Signal;HPM_P1;HPM_P2
2023/09/07 00:01:07;;;;;;;6.50;4.90;;;;;;;19.00;64.55;100120.75;107227;1257;73059;-38
2023/09/07 00:03:40;;;;;;;7.70;4.90;;;;;;;18.98;64.52;100121.30;107211;1261;67610;-38
2023/09/07 00:06:09;;;;;;;7.80;5.50;;;;;;;18.95;64.75;100123.74;107272;1262;71778;-38
2023/09/07 00:08:37;;;;;;;6.30;5.10;;;;;;;18.94;64.90;100124.29;107225;1258;59538;-38
2023/09/07 00:11:06;;;;;;;5.70;4.70;;;;;;;18.91;64.85;100124.08;107193;1258;60047;-38
2023/09/07 00:13:33;;;;;;;6.80;5.20;;;;;;;18.89;65.12;100121.32;107215;1257;71784;-37
2023/09/07 00:16:02;;;;;;;8.70;4.60;;;;;;;18.87;65.32;100119.86;107227;1262;67584;-38
2023/09/07 00:18:31;;;;;;;6.50;4.50;;;;;;;18.88;65.49;100121.96;107245;1261;72645;-38
2023/09/07 00:21:00;;;;;;;6.40;4.30;;;;;;;18.92;65.87;100122.96;107245;1263;60095;-36
2023/09/07 00:23:29;;;;;;;5.10;4.10;;;;;;;18.93;66.05;100122.80;107269;1257;59522;-37
2023/09/07 00:25:56;;;;;;;6.00;4.30;;;;;;;18.94;66.17;100126.17;107230;1258;73044;-37
2023/09/07 00:28:24;;;;;;;4.90;4.00;;;;;;;18.95;66.25;100129.80;107268;1262;67604;-37
2023/09/07 00:30:52;;;;;;;5.70;4.20;;;;;;;18.95;66.58;100133.25;107240;1260;71489;-37
2023/09/07 00:33:20;;;;;;;6.60;4.10;;;;;;;18.95;66.63;100137.25;107231;1262;60431;-38
2023/09/07 00:35:48;;;;;;;5.80;4.10;;;;;;;18.98;66.66;100146.27;107218;1263;59602;-37
2023/09/07 00:38:15;;;;;;;6.80;3.90;;;;;;;19.00;66.57;100148.31;107242;1263;72281;-37
2023/09/07 00:40:45;;;;;;;4.80;3.90;;;;;;;19.01;66.45;100148.77;107270;1259;67993;-37
2023/09/07 00:43:12;;;;;;;5.70;4.40;;;;;;;18.99;66.47;100152.77;107087;1257;71544;-37
2023/09/07 00:45:40;;;;;;;4.80;4.00;;;;;;;18.96;66.43;100150.75;107172;1262;60065;-37
2023/09/07 00:48:08;;;;;;;5.80;4.60;;;;;;;18.90;66.38;100151.63;107054;1263;60033;-37
2023/09/07 00:50:36;;;;;;;8.60;4.30;;;;;;;18.83;66.43;100149.84;107248;1262;73036;-37
2023/09/07 00:53:03;;;;;;;7.40;3.90;;;;;;;18.81;66.64;100152.04;107037;1262;67023;-37
2023/09/07 00:55:33;;;;;;;5.50;3.90;;;;;;;18.81;66.71;100150.70;107234;1258;71087;-37
2023/09/07 00:58:03;;;;;;;;;;;;;;;18.78;66.83;100153.85;107086;1263;59603;-37
2023/09/07 01:00:30;;;;;;;5.30;4.40;;;;;;;18.75;67.07;100150.71;107238;1257;59515;-37
2023/09/07 01:02:58;;;;;;;7.60;4.10;;;;;;;18.72;67.39;100152.53;107126;1260;71877;-37
2023/09/07 01:05:34;;;;;;;5.50;4.30;;;;;;;18.65;67.46;100146.48;107268;1258;65312;-37
2023/09/07 01:08:07;;;;;;;6.90;4.30;;;;;;;18.67;67.49;100154.73;107012;1258;71445;-37
2023/09/07 01:10:35;;;;;;;5.60;3.80;;;;;;;18.70;67.61;100157.80;107219;1263;60454;-37
2023/09/07 01:13:03;;;;;;;5.20;3.60;;;;;;;18.74;67.52;100158.17;107169;1263;59695;-37
2023/09/07 01:15:30;;;;;;;5.00;3.80;;;;;;;18.75;67.76;100159.98;107200;1262;72321;-37
2023/09/07 01:17:59;;;;;;;6.10;4.10;;;;;;;18.75;67.71;100159.58;107192;1258;66318;-37
2023/09/07 01:20:46;;;;;;;5.40;4.20;;;;;;;18.74;67.64;100158.95;107180;1263;72694;-37
2023/09/07 01:23:14;;;;;;;6.20;4.00;;;;;;;18.73;67.58;100166.18;107237;1263;59637;-37
2023/09/07 01:25:42;;;;;;;4.90;4.20;;;;;;;18.71;67.71;100169.16;107127;1265;59484;-37
2023/09/07 01:28:10;;;;;;;6.30;3.80;;;;;;;18.73;67.62;100171.98;107044;1258;72996;-38
2023/09/07 01:30:38;;;;;;;4.40;3.80;;;;;;;18.78;67.63;100173.48;107243;1258;67751;-38
2023/09/07 01:33:07;;;;;;;5.00;4.10;;;;;;;18.79;67.54;100172.45;107225;1257;72683;-38
2023/09/07 01:35:36;;;;;;;7.00;3.90;;;;;;;18.78;67.36;100172.85;107076;1263;60168;-38
2023/09/07 01:38:03;;;;;;;7.20;4.20;;;;;;;18.77;67.13;100176.07;106889;1263;60237;-38
2023/09/07 01:40:31;;;;;;;4.40;3.70;;;;;;;18.78;66.98;100179.84;107180;1263;73381;-38
2023/09/07 01:42:59;;;;;;;8.10;3.80;;;;;;;18.76;67.09;100179.44;107242;1263;66619;-38
2023/09/07 01:45:26;;;;;;;6.20;3.70;;;;;;;18.75;66.94;100175.13;107194;1258;71771;-38
2023/09/07 01:47:54;;;;;;;5.40;3.30;;;;;;;18.76;66.67;100177.55;107204;1260;60548;-38
2023/09/07 01:50:22;;;;;;;4.80;3.70;;;;;;;18.80;66.69;100179.67;107065;1257;60309;-38
2023/09/07 01:52:49;;;;;;;6.80;3.70;;;;;;;18.81;66.78;100177.70;107209;1257;73888;-38
2023/09/07 01:55:17;;;;;;;6.40;3.90;;;;;;;18.80;66.65;100177.47;107257;1263;66593;-36
2023/09/07 01:57:45;;;;;;;5.30;3.80;;;;;;;18.78;66.73;100178.33;107026;1263;72651;-36
2023/09/07 02:00:13;;;;;;;5.80;4.00;;;;;;;18.76;66.69;100177.48;107227;1262;60447;-37
2023/09/07 02:02:41;;;;;;;6.80;3.90;;;;;;;18.72;66.81;100181.09;107053;1263;60421;-37
2023/09/07 02:05:09;;;;;;;6.90;3.90;;;;;;;18.70;67.03;100178.58;107033;1258;73177;-37
2023/09/07 02:07:37;;;;;;;5.50;3.80;;;;;;;18.70;67.05;100179.84;107211;1263;67587;-37
2023/09/07 02:10:06;;;;;;;4.60;3.70;;;;;;;18.71;67.18;100180.77;107149;1257;72667;-37
2023/09/07 02:12:33;;;;;;;4.80;3.80;;;;;;;18.68;67.37;100180.71;107230;1258;61002;-37
2023/09/07 02:15:02;;;;;;;7.80;3.60;;;;;;;18.62;67.58;100182.03;107053;1257;60543;-37
2023/09/07 02:17:30;;;;;;;5.20;3.80;;;;;;;18.57;67.88;100181.89;107185;1263;72596;-37
2023/09/07 02:19:58;;;;;;;6.40;4.30;;;;;;;18.54;67.71;100184.40;107140;1263;67941;-37
2023/09/07 02:22:26;;;;;;;5.50;4.00;;;;;;;18.49;67.86;100183.73;107040;1257;72676;-37
2023/09/07 02:24:53;;;;;;;7.00;4.00;;;;;;;18.48;68.16;100190.03;107210;1262;61736;-37
2023/09/07 02:27:21;;;;;;;6.30;3.80;;;;;;;18.49;68.15;100193.07;107077;1263;61207;-37
2023/09/07 02:29:48;;;;;;;6.20;4.20;;;;;;;18.48;68.17;100192.14;107207;1263;73165;-37
2023/09/07 02:32:16;;;;;;;4.80;4.00;;;;;;;18.45;68.37;100197.86;107230;1262;67566;-38
2023/09/07 02:34:44;;;;;;;7.60;4.30;;;;;;;18.42;68.37;100194.02;107194;1257;71399;-38
2023/09/07 02:37:14;;;;;;;5.10;4.30;;;;;;;18.36;68.63;100195.27;107228;1257;60378;-38
2023/09/07 02:39:42;;;;;;;6.30;4.30;;;;;;;18.29;68.69;100196.91;107216;1257;59787;-38
2023/09/07 02:42:10;;;;;;;4.90;4.10;;;;;;;18.27;68.69;100193.06;107201;1257;72579;-38
2023/09/07 02:44:38;;;;;;;5.00;3.80;;;;;;;18.26;68.61;100198.95;107243;1258;67642;-38
2023/09/07 02:47:05;;;;;;;6.30;4.00;;;;;;;18.22;68.77;100196.67;107054;1258;71728;-37
2023/09/07 02:49:33;;;;;;;5.00;3.90;;;;;;;18.18;68.94;100194.95;107159;1258;60341;-37
2023/09/07 02:52:01;;;;;;;7.40;4.30;;;;;;;18.12;69.07;100195.88;107219;1262;60322;-37
2023/09/07 02:54:29;;;;;;;6.00;4.00;;;;;;;18.06;69.27;100193.90;107238;1257;73041;-37
2023/09/07 02:56:57;;;;;;;6.00;4.00;;;;;;;18.01;69.53;100194.29;107164;1257;66767;-37
2023/09/07 02:59:24;;;;;;;5.10;4.00;;;;;;;18.00;69.49;100196.33;107033;1257;72748;-37
2023/09/07 03:01:52;;;;;;;4.90;3.80;;;;;;;18.01;69.57;100194.75;107058;1257;60467;-37
2023/09/07 03:04:21;;;;;;;6.10;4.50;;;;;;;18.00;69.69;100197.44;107273;1258;60322;-37
2023/09/07 03:06:49;;;;;;;4.90;4.10;;;;;;;17.97;69.86;100201.48;107044;1258;73906;-37
2023/09/07 03:09:17;;;;;;;6.70;4.70;;;;;;;17.94;69.86;100200.70;107159;1257;67434;-37
2023/09/07 03:11:44;;;;;;;6.80;4.40;;;;;;;17.90;69.94;100201.39;107087;1261;71461;-38
2023/09/07 03:14:12;;;;;;;5.90;4.20;;;;;;;17.86;70.21;100206.16;107229;1258;60539;-37
2023/09/07 03:16:41;;;;;;;5.40;3.70;;;;;;;17.85;70.20;100213.54;107286;1258;60244;-37
2023/09/07 03:19:09;;;;;;;5.30;4.20;;;;;;;17.84;70.25;100214.15;107113;1258;72656;-37
2023/09/07 03:21:37;;;;;;;5.90;4.60;;;;;;;17.81;70.32;100218.45;107239;1257;66303;-37
2023/09/07 03:24:05;;;;;;;8.50;4.90;;;;;;;17.76;70.43;100224.63;107114;1260;71486;-37
2023/09/07 03:26:33;;;;;;;6.60;5.00;;;;;;;17.69;70.37;100234.24;107090;1260;60097;-37
2023/09/07 03:29:01;;;;;;;5.60;4.50;;;;;;;17.59;70.58;100232.14;107253;1258;60307;-37
2023/09/07 03:31:29;;;;;;;6.40;5.00;;;;;;;17.58;70.64;100233.85;107098;1257;73900;-37
2023/09/07 03:33:57;;;;;;;5.40;4.20;;;;;;;17.59;70.62;100240.31;107097;1258;66618;-37
2023/09/07 03:36:27;;;;;;;5.90;4.60;;;;;;;17.58;70.81;100238.47;107077;1263;72843;-37
2023/09/07 03:38:54;;;;;;;5.50;4.50;;;;;;;17.55;70.90;100247.77;107220;1257;60354;-37
2023/09/07 03:41:23;;;;;;;5.10;4.60;;;;;;;17.52;71.04;100250.66;107256;1257;60421;-37
2023/09/07 03:43:50;;;;;;;7.00;4.70;;;;;;;17.49;71.09;100256.52;107224;1257;72602;-37
2023/09/07 03:46:18;;;;;;;5.90;4.90;;;;;;;17.50;70.94;100264.59;107240;1258;67586;-37
2023/09/07 03:48:46;;;;;;;9.90;6.00;;;;;;;17.48;70.80;100268.50;107065;1264;72699;-37
2023/09/07 03:51:13;;;;;;;7.00;5.60;;;;;;;17.42;70.87;100266.59;107233;1258;59426;-37
2023/09/07 03:53:41;;;;;;;8.30;5.70;;;;;;;17.35;71.09;100274.38;107327;1257;60455;-37
2023/09/07 03:56:09;;;;;;;7.60;5.70;;;;;;;17.32;71.34;100274.36;107066;1260;72580;-37
2023/09/07 03:58:38;;;;;;;8.70;5.50;;;;;;;17.26;71.53;100276.05;107113;1257;66309;-37
2023/09/07 04:01:06;;;;;;;9.10;5.20;;;;;;;17.22;71.67;100272.50;107164;1260;71628;-37
2023/09/07 04:03:33;;;;;;;7.40;5.10;;;;;;;17.27;71.73;100282.33;107223;1257;60556;-37
2023/09/07 04:06:02;;;;;;;8.10;5.40;;;;;;;17.26;72.02;100280.75;107253;1262;60377;-38
2023/09/07 04:08:30;;;;;;;8.40;5.50;;;;;;;17.27;72.12;100284.75;107241;1257;73410;-37
2023/09/07 04:10:58;;;;;;;7.20;5.20;;;;;;;17.27;72.14;100285.14;107218;1257;67720;-37
2023/09/07 04:13:25;;;;;;;7.10;4.90;;;;;;;17.31;72.17;100290.17;107197;1258;73104;-38
2023/09/07 04:15:53;;;;;;;5.60;4.60;;;;;;;17.38;72.04;100293.90;107020;1263;60532;-38
2023/09/07 04:18:20;;;;;;;5.20;4.40;;;;;;;17.43;71.95;100295.80;107218;1257;60300;-37
2023/09/07 04:20:48;;;;;;;6.10;5.10;;;;;;;17.44;71.87;100297.21;107162;1260;73851;-38
2023/09/07 04:23:16;;;;;;;6.70;4.90;;;;;;;17.42;71.85;100294.87;107192;1257;65682;-37
2023/09/07 04:25:43;;;;;;;5.80;4.30;;;;;;;17.40;71.89;100296.49;107156;1262;71468;-38
2023/09/07 04:28:12;;;;;;;5.10;4.50;;;;;;;17.46;71.87;100297.71;107058;1257;60527;-38
2023/09/07 04:30:41;;;;;;;7.70;5.20;;;;;;;17.54;71.82;100295.64;107197;1257;60446;-37
2023/09/07 04:33:09;;;;;;;9.70;4.90;;;;;;;17.58;71.89;100298.55;107236;1257;71588;-38
2023/09/07 04:35:37;;;;;;;5.60;4.30;;;;;;;17.62;72.10;100299.48;107220;1257;66641;-37
2023/09/07 04:38:06;;;;;;;6.40;4.70;;;;;;;17.67;71.92;100299.73;107060;1262;71393;-37
2023/09/07 04:40:33;;;;;;;5.90;4.30;;;;;;;17.74;71.81;100305.25;107174;1261;60604;-37
2023/09/07 04:43:01;;;;;;;6.10;4.40;;;;;;;17.85;71.33;100303.11;107175;1258;60494;-37
2023/09/07 04:45:29;;;;;;;7.10;4.40;;;;;;;17.97;71.12;100305.98;107214;1257;73994;-37
2023/09/07 04:47:56;;;;;;;6.60;5.00;;;;;;;18.05;70.61;100304.44;107176;1257;66400;-37
2023/09/07 04:50:25;;;;;;;5.50;4.20;;;;;;;18.10;70.36;100305.02;107170;1263;71198;-37
2023/09/07 04:52:53;;;;;;;7.40;4.30;;;;;;;18.11;70.22;100307.04;107152;1260;61005;-38
2023/09/07 04:55:20;;;;;;;6.10;4.50;;;;;;;18.12;70.11;100308.30;107237;1257;60451;-37
2023/09/07 04:57:48;;;;;;;7.20;4.30;;;;;;;18.11;69.92;100300.86;107166;1257;72556;-37
2023/09/07 05:00:16;;;;;;;6.40;4.30;;;;;;;18.26;69.52;100307.57;107205;1258;66966;-37
2023/09/07 05:02:45;;;;;;;6.00;3.80;;;;;;;18.35;69.14;100311.43;107026;1258;71413;-37
2023/09/07 05:05:13;;;;;;;6.90;4.80;;;;;;;18.40;68.77;100310.44;107043;1257;60401;-37
2023/09/07 05:07:41;;;;;;;6.50;4.20;;;;;;;18.45;68.60;100310.05;107086;1257;60511;-37
2023/09/07 05:10:12;;;;;;;5.60;4.00;;;;;;;18.47;68.24;100314.69;107182;1257;73045;-37
2023/09/07 05:12:40;;;;;;;6.10;4.60;;;;;;;18.50;68.01;100312.95;107110;1257;66891;-37
2023/09/07 05:15:09;;;;;;;9.90;4.00;;;;;;;18.51;68.00;100313.67;107094;1257;71370;-38
2023/09/07 05:17:38;;;;;;;5.40;4.20;;;;;;;18.55;67.19;100314.89;107202;1257;61711;-37
2023/09/07 05:20:07;;;;;;;6.30;4.10;;;;;;;18.59;66.83;100314.19;107206;1258;60492;-37
2023/09/07 05:22:39;;;;;;;6.00;4.10;;;;;;;18.61;66.72;100314.18;107095;1263;73814;-37
2023/09/07 05:25:08;;;;;;;6.30;4.40;;;;;;;18.63;66.82;100319.21;107094;1257;66306;-37
2023/09/07 05:27:36;;;;;;;6.70;4.10;;;;;;;18.66;66.76;100316.63;107095;1263;71414;-37
2023/09/07 05:30:05;;;;;;;4.60;3.90;;;;;;;18.70;66.27;100315.92;107259;1257;60328;-37
2023/09/07 05:32:33;;;;;;;5.80;4.20;;;;;;;18.71;65.71;100314.74;107092;1258;60294;-37
2023/09/07 05:35:01;;;;;;;5.20;3.90;;;;;;;18.72;65.50;100316.48;107130;1257;72564;-37
2023/09/07 05:37:28;;;;;;;5.20;3.80;;;;;;;18.73;65.35;100315.61;107208;1258;66622;-37
2023/09/07 05:39:56;;;;;;;6.70;3.70;;;;;;;18.79;65.37;100320.64;107166;1261;70534;-37
2023/09/07 05:42:25;;;;;;;6.50;3.50;;;;;;;18.86;65.05;100318.77;107184;1257;60437;-37
2023/09/07 05:44:54;;;;;;;5.60;3.90;;;;;;;18.90;65.25;100319.63;107127;1257;60339;-37
2023/09/07 05:47:22;;;;;;;5.70;4.20;;;;;;;18.94;65.50;100319.94;107201;1257;72557;-37
2023/09/07 05:49:50;;;;;;;6.00;4.00;;;;;;;18.99;64.99;100318.30;107254;1257;66954;-37
2023/09/07 05:52:18;;;;;;;6.00;3.90;;;;;;;19.04;64.67;100326.46;107241;1257;71387;-37
2023/09/07 05:54:46;;;;;;;6.90;3.70;;;;;;;19.09;64.59;100324.89;107163;1257;60507;-37
2023/09/07 05:57:14;;;;;;;4.60;4.00;;;;;;;19.14;64.67;100324.96;107241;1258;60344;-37
2023/09/07 05:59:41;;;;;;;4.70;3.60;;;;;;;19.19;64.57;100322.52;107182;1258;73183;-36
2023/09/07 06:02:09;;;;;;;5.70;3.70;;;;;;;19.25;64.31;100323.70;107046;1257;67572;-36
2023/09/07 06:04:37;;;;;;;6.10;4.00;;;;;;;19.31;64.25;100325.27;107226;1257;71385;-36
2023/09/07 06:07:05;;;;;;;6.00;3.90;;;;;;;19.35;63.85;100330.54;107008;1263;60426;-37
2023/09/07 06:09:32;;;;;;;5.40;3.70;;;;;;;19.41;63.70;100333.42;107184;1257;60049;-37
2023/09/07 06:12:02;;;;;;;5.50;4.00;;;;;;;19.47;63.58;100339.58;107196;1258;73857;-37
2023/09/07 06:14:30;;;;;;;8.00;4.30;;;;;;;19.55;63.02;100339.80;107098;1258;66780;-37
2023/09/07 06:16:58;;;;;;;6.60;3.70;;;;;;;19.60;62.11;100342.61;107204;1257;71401;-37
2023/09/07 06:19:26;;;;;;;7.00;3.70;;;;;;;19.63;62.03;100346.70;107220;1262;60454;-37
2023/09/07 06:21:53;;;;;;;4.70;3.90;;;;;;;19.67;61.40;100345.43;107188;1257;60450;-37
2023/09/07 06:24:21;;;;;;;9.70;4.00;;;;;;;19.68;61.18;100347.55;107131;1257;72643;-37
2023/09/07 06:26:49;;;;;;;6.60;3.90;;;;;;;19.70;60.82;100349.36;107189;1258;66351;-37
2023/09/07 06:29:17;;;;;;;6.40;4.00;;;;;;;19.74;61.02;100350.67;107063;1258;72504;-37
2023/09/07 06:31:45;;;;;;;6.70;4.30;;;;;;;19.77;60.86;100351.69;107268;1257;60452;-37
2023/09/07 06:34:13;;;;;;;6.40;3.90;;;;;;;19.77;61.07;100354.91;107067;1262;60577;-37
2023/09/07 06:36:41;;;;;;;5.10;3.50;;;;;;;19.76;61.04;100361.20;107193;1257;73110;-38
2023/09/07 06:39:17;;;;;;;5.10;3.90;;;;;;;19.80;61.05;100362.92;107030;1257;68390;-37
2023/09/07 06:41:46;;;;;;;4.50;3.40;;;;;;;19.86;60.98;100365.73;107085;1260;71112;-37
2023/09/07 06:44:14;;;;;;;4.80;3.40;;;;;;;19.97;60.68;100367.67;107216;1257;60326;-37
2023/09/07 06:46:43;;;;;;;6.00;3.50;;;;;;;20.08;59.98;100367.40;107213;1257;60489;-37
2023/09/07 06:49:11;;;;;;;3.80;3.30;;;;;;;20.18;58.83;100367.45;107233;1258;72586;-37
2023/09/07 06:51:39;;;;;;;7.60;3.40;;;;;;;20.27;57.92;100375.66;107071;1261;66441;-37
2023/09/07 06:54:07;;;;;;;4.70;2.90;;;;;;;20.37;57.47;100375.50;107093;1260;71423;-37
2023/09/07 06:56:34;;;;;;;7.70;3.20;;;;;;;20.46;56.46;100373.09;107228;1257;60262;-37
2023/09/07 06:59:02;;;;;;;5.90;3.00;;;;;;;20.56;56.04;100379.02;107201;1257;60291;-36
2023/09/07 07:01:30;;;;;;;6.80;3.00;;;;;;;20.61;55.13;100377.25;107084;1257;72667;-38
2023/09/07 07:03:59;;;;;;;4.10;2.60;;;;;;;20.67;54.54;100382.41;107223;1257;66667;-37
2023/09/07 07:06:27;;;;;;;8.90;3.20;;;;;;;20.73;53.67;100379.70;107045;1257;71410;-37
2023/09/07 07:08:55;;;;;;;4.50;2.90;;;;;;;20.76;53.61;100379.44;107212;1260;60540;-37
2023/09/07 07:11:22;;;;;;;5.80;3.20;;;;;;;20.83;53.73;100383.65;107105;1257;60597;-37
2023/09/07 07:13:50;;;;;;;6.80;3.20;;;;;;;20.92;53.42;100386.98;107099;1258;73894;-37
2023/09/07 07:16:18;;;;;;;6.80;3.00;;;;;;;21.00;53.11;100382.82;107056;1258;67918;-37
2023/09/07 07:18:47;;;;;;;5.30;3.10;;;;;;;21.09;52.15;100384.64;107162;1260;71468;-37
2023/09/07 07:21:15;;;;;;;5.50;3.00;;;;;;;21.15;52.24;100379.27;107064;1261;60473;-37
2023/09/07 07:23:43;;;;;;;7.60;3.00;;;;;;;21.22;52.18;100379.21;107046;1258;60607;-37
2023/09/07 07:26:11;;;;;;;5.90;3.00;;;;;;;21.33;51.83;100382.13;107084;1258;74312;-37
2023/09/07 07:28:39;;;;;;;8.20;2.80;;;;;;;21.43;51.63;100381.64;107144;1257;66472;-37
2023/09/07 07:31:10;;;;;;;3.10;2.40;;;;;;;21.51;51.05;100378.81;107167;1260;72668;-37
2023/09/07 07:33:40;;;;;;;4.70;2.60;;;;;;;21.58;50.83;100377.02;107122;1260;60276;-37
2023/09/07 07:36:08;;;;;;;3.40;2.50;;;;;;;21.65;50.85;100376.86;107088;1258;59601;-37
2023/09/07 07:38:36;;;;;;;4.30;2.70;;;;;;;21.73;51.14;100382.45;107039;1264;72969;-37
2023/09/07 07:41:05;;;;;;;4.70;2.60;;;;;;;21.81;50.66;100378.43;107091;1258;67094;-39
2023/09/07 07:43:34;;;;;;;5.70;2.70;;;;;;;21.89;50.36;100373.14;107105;1257;71484;-38
2023/09/07 07:46:04;;;;;;;4.90;2.50;;;;;;;21.95;49.51;100376.41;107083;1258;60535;-38
2023/09/07 07:48:35;;;;;;;4.40;2.40;;;;;;;21.98;49.91;100375.75;107116;1258;60421;-38
2023/09/07 07:51:05;;;;;;;4.00;2.90;;;;;;;22.08;49.67;100375.16;107049;1257;72577;-38
2023/09/07 07:53:37;;;;;;;4.60;2.40;;;;;;;22.19;49.12;100377.55;107124;1258;66305;-38
2023/09/07 07:56:05;;;;;;;4.80;2.50;;;;;;;22.29;48.86;100379.87;107122;1257;71073;-38
2023/09/07 07:58:33;;;;;;;4.50;2.30;;;;;;;22.40;49.05;100378.39;107014;1257;60477;-38
2023/09/07 08:01:02;;;;;;;5.00;2.50;;;;;;;22.50;48.48;100381.25;107216;1257;59813;-38
2023/09/07 08:03:30;;;;;;;5.60;2.40;;;;;;;22.62;47.69;100378.33;107166;1258;72454;-39
2023/09/07 08:05:59;;;;;;;7.60;2.50;;;;;;;22.73;47.15;100377.73;107024;1263;66429;-38
2023/09/07 08:08:26;;;;;;;4.20;2.30;;;;;;;22.82;47.09;100378.30;107017;1258;72699;-38
2023/09/07 08:10:54;;;;;;;3.40;2.10;;;;;;;22.91;46.97;100379.59;107103;1260;59231;-38
2023/09/07 08:13:22;;;;;;;2.90;2.10;;;;;;;23.00;47.03;100379.84;107245;1257;60475;-38
2023/09/07 08:15:50;;;;;;;3.60;2.20;;;;;;;23.01;46.47;100381.50;107272;1257;72592;-38
2023/09/07 08:18:19;;;;;;;4.20;2.30;;;;;;;22.92;46.49;100379.33;107262;1257;67196;-36
2023/09/07 08:20:47;;;;;;;3.30;2.20;;;;;;;22.90;46.33;100380.70;107267;1256;71339;-37
2023/09/07 08:23:15;;;;;;;2.60;2.00;;;;;;;22.94;45.87;100380.02;107360;1257;60651;-37
2023/09/07 08:25:46;;;;;;;3.50;2.10;;;;;;;23.02;45.58;100385.50;107159;1257;60303;-37
2023/09/07 08:28:17;;;;;;;4.20;2.20;;;;;;;23.08;45.05;100380.11;107211;1257;73195;-37
2023/09/07 08:30:45;;;;;;;4.60;2.20;;;;;;;23.12;45.29;100383.46;107286;1260;67554;-38
2023/09/07 08:33:13;;;;;;;8.20;2.20;;;;;;;23.17;44.84;100381.95;107205;1256;72726;-37
2023/09/07 08:35:43;;;;;;;2.50;1.80;;;;;;;23.26;44.49;100384.09;107244;1257;60539;-37
2023/09/07 08:38:13;;;;;;;2.90;2.10;;;;;;;23.32;43.79;100385.25;107226;1257;60975;-37
2023/09/07 08:40:41;;;;;;;3.60;2.20;;;;;;;23.36;43.67;100385.50;107264;1257;76492;-37
2023/09/07 08:43:11;;;;;;;4.10;1.80;;;;;;;23.43;43.57;100384.36;107289;1257;65722;-37
2023/09/07 08:45:47;;;;;;;2.70;1.70;;;;;;;23.49;42.64;100390.77;107250;1258;72405;-37
2023/09/07 08:48:17;;;;;;;2.90;1.90;;;;;;;23.57;42.46;100389.36;107209;1257;60603;-39
2023/09/07 08:50:49;;;;;;;3.00;2.10;;;;;;;23.64;42.37;100388.67;107262;1256;60472;-38
2023/09/07 08:53:19;;;;;;;5.50;2.10;;;;;;;23.72;41.97;100388.21;107222;1257;72549;-37
2023/09/07 08:55:46;;;;;;;3.80;2.10;;;;;;;23.79;42.29;100385.95;107254;1257;66953;-37
2023/09/07 08:58:14;;;;;;;5.10;2.00;;;;;;;23.89;42.05;100385.52;107167;1262;72645;-37
2023/09/07 09:00:43;;;;;;;3.40;2.30;;;;;;;24.00;41.12;100381.84;107288;1256;60346;-37
2023/09/07 09:03:11;;;;;;;6.00;2.30;;;;;;;24.08;41.20;100387.30;107023;1256;60428;-37
2023/09/07 09:05:39;;;;;;;4.00;2.00;;;;;;;24.14;41.20;100385.58;107278;1256;73834;-37
2023/09/07 09:08:07;;;;;;;5.00;2.00;;;;;;;24.21;40.68;100386.35;107294;1260;66792;-37
2023/09/07 09:10:39;;;;;;;4.40;1.90;;;;;;;24.29;40.53;100391.40;107197;1261;72666;-37
2023/09/07 09:13:07;;;;;;;6.60;2.40;;;;;;;24.40;40.69;100393.38;107268;1257;60113;-37
2023/09/07 09:15:34;;;;;;;3.50;2.50;;;;;;;24.50;40.91;100389.14;107226;1257;59340;-37
2023/09/07 09:18:11;;;;;;;4.10;2.00;;;;;;;24.52;40.78;100388.92;107203;1257;74185;-38
2023/09/07 09:20:39;;;;;;;6.30;2.20;;;;;;;24.64;40.42;100391.42;107229;1257;67663;-37
2023/09/07 09:23:07;;;;;;;4.90;2.20;;;;;;;24.79;39.60;100387.84;107196;1257;73065;-37
2023/09/07 09:25:35;;;;;;;3.60;2.20;;;;;;;24.95;39.67;100393.14;107220;1256;60469;-37
2023/09/07 09:28:04;;;;;;;2.90;2.10;;;;;;;25.12;39.82;100389.73;107247;1257;61096;-37
2023/09/07 09:30:32;;;;;;;3.70;2.30;;;;;;;25.28;38.81;100383.88;107267;1262;73853;-37
2023/09/07 09:32:59;;;;;;;4.20;2.30;;;;;;;25.35;38.54;100387.09;107223;1257;67587;-40
2023/09/07 09:35:27;;;;;;;4.90;2.00;;;;;;;25.46;38.34;100386.95;107035;1257;72693;-38
2023/09/07 09:37:55;;;;;;;4.20;1.80;;;;;;;25.56;37.41;100385.79;107239;1257;60392;-38
2023/09/07 09:40:26;;;;;;;3.40;2.10;;;;;;;25.65;37.46;100385.33;107142;1257;60421;-38
2023/09/07 09:42:54;;;;;;;3.20;2.10;;;;;;;25.76;37.26;100388.45;107031;1257;73847;-38
2023/09/07 09:45:22;;;;;;;3.10;2.00;;;;;;;25.88;36.90;100389.23;107217;1257;68011;-37
2023/09/07 09:47:50;;;;;;;4.60;2.00;;;;;;;26.00;36.71;100389.27;107100;1257;72698;-37
2023/09/07 09:53:07;;;;;;;5.50;2.10;;;;;;;26.13;37.34;100385.64;104100;1292;601112;-37
2023/09/07 09:55:34;;;;;;;6.70;2.10;;;;;;;26.19;36.42;100388.52;106615;1271;59190;-37
2023/09/07 09:58:02;;;;;;;3.40;1.80;;;;;;;26.30;35.45;100391.70;106596;1271;60091;-39
2023/09/07 10:00:30;;;;;;;6.10;1.90;;;;;;;26.42;34.52;100387.69;106639;1271;71261;-37
2023/09/07 10:03:13;;;;;;;3.10;1.70;;;;;;;26.41;34.71;100392.97;106696;1270;67899;-37
2023/09/07 10:05:44;;;;;;;5.50;2.00;;;;;;;26.42;34.81;100394.21;106486;1271;193864;-38
2023/09/07 10:08:13;;;;;;;3.80;1.80;;;;;;;26.53;34.57;100391.04;106778;1263;58848;-38
2023/09/07 10:10:41;;;;;;;3.40;1.60;;;;;;;26.55;34.44;100388.98;106744;1268;59201;-38
2023/09/07 10:13:09;;;;;;;4.70;1.80;;;;;;;26.54;34.47;100386.70;106821;1264;72692;-37
2023/09/07 10:15:38;;;;;;;2.30;1.50;;;;;;;26.65;33.99;100385.34;106729;1269;67679;-38
2023/09/07 10:18:10;;;;;;;3.90;1.60;;;;;;;26.82;33.38;100385.62;106768;1268;71273;-38
2023/09/07 10:20:52;;;;;;;5.40;1.70;;;;;;;27.00;32.57;100385.05;106835;1264;59643;-38
2023/09/07 10:23:20;;;;;;;2.70;1.60;;;;;;;27.14;32.35;100383.70;106777;1269;60010;-38
2023/09/07 10:25:52;;;;;;;6.30;2.00;;;;;;;27.30;32.50;100386.53;106788;1264;72235;-38
2023/09/07 10:28:24;;;;;;;4.80;1.90;;;;;;;27.41;31.88;100386.33;106814;1264;67632;-37
2023/09/07 10:31:05;;;;;;;2.70;1.70;;;;;;;27.47;31.93;100383.44;106792;1263;73143;-37
2023/09/07 10:33:34;;;;;;;2.50;1.70;;;;;;;27.63;31.99;100384.39;106789;1269;61029;-38
2023/09/07 10:36:03;;;;;;;3.40;2.00;;;;;;;27.84;31.99;100385.59;106864;1269;60502;-37
2023/09/07 10:38:32;;;;;;;4.60;2.00;;;;;;;28.06;31.99;100384.00;106821;1264;73158;-37
2023/09/07 10:41:01;;;;;;;3.20;1.90;;;;;;;28.26;31.47;100378.23;106758;1264;66314;-37
2023/09/07 10:43:29;;;;;;;4.60;2.00;;;;;;;28.45;30.38;100380.23;106810;1264;71394;-37
2023/09/07 10:45:58;;;;;;;7.50;1.90;;;;;;;28.60;30.32;100379.96;106819;1264;59628;-37
2023/09/07 10:48:29;;;;;;;3.60;1.90;;;;;;;28.66;29.64;100380.83;106833;1268;59854;-37
2023/09/07 10:50:57;;;;;;;3.70;1.90;;;;;;;28.72;30.11;100383.60;106841;1263;72144;-37
2023/09/07 10:53:28;;;;;;;3.50;1.40;;;;;;;28.90;29.74;100386.44;106754;1264;66514;-37
2023/09/07 10:55:59;;;;;;;3.60;2.00;;;;;;;29.06;28.80;100383.02;107017;1261;71455;-37
2023/09/07 10:58:34;;;;;;;2.90;1.70;;;;;;;29.17;28.26;100381.05;107013;1265;61024;-37
2023/09/07 11:01:05;;;;;;;3.40;1.60;;;;;;;29.29;27.61;100379.02;106993;1261;61190;-37
2023/09/07 11:03:33;;;;;;;3.30;1.80;;;;;;;29.39;26.80;100376.88;107005;1261;71843;-38
2023/09/07 11:06:08;;;;;;;5.20;1.50;;;;;;;29.42;26.44;100380.11;106992;1260;67920;-38
2023/09/07 11:08:35;;;;;;;4.60;1.60;;;;;;;29.51;26.11;100384.44;107002;1264;71471;-37
2023/09/07 11:11:03;;;;;;;2.90;1.50;;;;;;;29.65;25.39;100381.03;106998;1264;60103;-38
2023/09/07 11:13:31;;;;;;;3.70;1.60;;;;;;;29.88;25.22;100378.98;106987;1260;59607;-38
2023/09/07 11:15:59;;;;;;;4.60;1.70;;;;;;;30.18;24.93;100382.95;107001;1261;71935;-38
2023/09/07 11:18:27;;;;;;;3.00;1.60;;;;;;;30.42;24.07;100384.08;107004;1266;67376;-38
2023/09/07 11:20:56;;;;;;;2.00;1.30;;;;;;;30.60;24.35;100376.91;106969;1261;72722;-37
2023/09/07 11:23:24;;;;;;;4.80;1.30;;;;;;;30.82;23.73;100376.20;106867;1265;60996;-38
2023/09/07 11:25:51;;;;;;;2.70;1.20;;;;;;;31.03;23.60;100374.59;106995;1261;60260;-38